createdAt,value
2017-03-12T00:00:41.759Z,0
2017-03-12T00:01:23.927Z,0
2017-03-12T00:04:01.017Z,0
2017-03-12T00:04:43.472Z,0
2017-03-12T00:05:26.054Z,0
2017-03-12T00:07:26.453Z,0
2017-03-12T00:08:08.735Z,0
2017-03-12T00:08:51.160Z,0
2017-03-12T00:09:33.975Z,0
2017-03-12T00:10:16.445Z,0
2017-03-12T00:12:32.625Z,0
2017-03-12T00:13:15.123Z,0
2017-03-12T00:13:58.140Z,0
2017-03-12T00:15:58.999Z,0
2017-03-12T00:16:41.546Z,0
2017-03-12T00:17:24.128Z,0
2017-03-12T00:18:06.229Z,0
2017-03-12T00:18:48.982Z,0
2017-03-12T00:19:31.631Z,0
2017-03-12T00:20:14.430Z,0
2017-03-12T00:20:56.786Z,0
2017-03-12T00:21:39.412Z,0
2017-03-12T00:22:22.135Z,0
2017-03-12T00:23:04.694Z,0
2017-03-12T00:23:47.365Z,0
2017-03-12T00:24:29.425Z,0
2017-03-12T00:25:12.036Z,0
2017-03-12T00:25:54.973Z,0
2017-03-12T00:26:37.568Z,0
2017-03-12T00:27:19.943Z,0
2017-03-12T00:31:47.521Z,0
2017-03-12T00:32:29.814Z,0
2017-03-12T00:33:13.024Z,0
2017-03-12T00:33:55.675Z,0
2017-03-12T00:34:38.514Z,0
2017-03-12T00:35:21.223Z,0
2017-03-12T00:36:03.782Z,0
2017-03-12T00:36:46.375Z,0
2017-03-12T00:37:28.888Z,0
2017-03-12T00:38:11.274Z,0
2017-03-12T00:40:49.178Z,0
2017-03-12T00:41:31.879Z,0
2017-03-12T00:42:14.531Z,0
2017-03-12T00:42:57.255Z,0
2017-03-12T00:45:13.194Z,0
2017-03-12T00:47:50.112Z,0
2017-03-12T00:48:32.487Z,0
2017-03-12T00:49:14.958Z,0
2017-03-12T00:49:57.459Z,0
2017-03-12T00:50:40.019Z,0
2017-03-12T00:51:22.581Z,0
2017-03-12T00:52:05.111Z,0
2017-03-12T00:52:46.961Z,0
2017-03-12T00:53:29.375Z,0
2017-03-12T00:54:11.092Z,0
2017-03-12T00:54:53.690Z,0
2017-03-12T00:55:35.884Z,0
2017-03-12T00:56:18.353Z,0
2017-03-12T00:57:00.805Z,0
2017-03-12T00:57:43.290Z,0
2017-03-12T00:58:25.982Z,0
2017-03-12T00:59:08.099Z,0
2017-03-12T00:59:51.315Z,0
2017-03-12T01:00:33.588Z,0
2017-03-12T01:01:15.921Z,0
2017-03-12T01:01:57.987Z,0
2017-03-12T01:02:40.603Z,0
2017-03-12T01:03:23.182Z,0
2017-03-12T01:04:05.446Z,0
2017-03-12T01:04:48.175Z,0
2017-03-12T01:05:31.037Z,0
2017-03-12T01:06:13.945Z,0
2017-03-12T01:06:55.877Z,0
2017-03-12T01:09:28.436Z,0
2017-03-12T01:10:11.313Z,0
2017-03-12T01:10:53.826Z,0
2017-03-12T01:11:36.416Z,0
2017-03-12T01:12:19.295Z,0
2017-03-12T01:13:02.084Z,0
2017-03-12T01:13:44.801Z,0
2017-03-12T01:14:27.021Z,0
2017-03-12T01:15:09.515Z,0
2017-03-12T01:17:46.731Z,0
2017-03-12T01:20:24.579Z,0
2017-03-12T01:21:06.963Z,0
2017-03-12T01:23:44.316Z,0
2017-03-12T01:24:27.219Z,0
2017-03-12T01:25:09.781Z,0
2017-03-12T01:27:26.223Z,0
2017-03-12T01:28:08.695Z,0
2017-03-12T01:28:51.145Z,0
2017-03-12T01:29:34.131Z,0
2017-03-12T01:30:16.522Z,0
2017-03-12T01:30:59.080Z,0
2017-03-12T01:31:41.668Z,0
2017-03-12T01:32:24.250Z,0
2017-03-12T01:33:06.708Z,0
2017-03-12T01:33:49.338Z,0
2017-03-12T01:34:30.981Z,0
2017-03-12T01:37:08.604Z,0
2017-03-12T01:37:50.857Z,0
2017-03-12T01:38:33.410Z,0
2017-03-12T01:39:15.699Z,0
2017-03-12T01:41:47.517Z,0
2017-03-12T01:42:29.909Z,0
2017-03-12T01:43:11.678Z,0
2017-03-12T01:43:53.765Z,0
2017-03-12T01:46:31.755Z,0
2017-03-12T01:47:14.266Z,0
2017-03-12T01:49:15.160Z,0
2017-03-12T01:49:57.639Z,0
2017-03-12T01:50:39.898Z,0
2017-03-12T01:51:22.659Z,0
2017-03-12T01:53:55.190Z,0
2017-03-12T01:54:37.560Z,0
2017-03-12T01:55:20.172Z,0
2017-03-12T01:56:02.642Z,0
2017-03-12T01:56:45.445Z,0
2017-03-12T01:57:27.857Z,0
2017-03-12T01:58:10.418Z,0
2017-03-12T02:00:09.533Z,0
2017-03-12T02:00:50.074Z,0
2017-03-12T02:01:30.612Z,0
2017-03-12T02:02:11.144Z,0
2017-03-12T02:02:51.673Z,0
2017-03-12T02:03:32.207Z,0
2017-03-12T02:04:12.730Z,0
2017-03-12T02:04:53.258Z,0
2017-03-12T02:05:33.780Z,0
2017-03-12T02:06:14.316Z,0
2017-03-12T02:06:54.847Z,0
2017-03-12T02:07:35.380Z,0
2017-03-12T02:08:15.915Z,0
2017-03-12T02:08:56.450Z,0
2017-03-12T02:09:36.982Z,0
2017-03-12T02:10:17.523Z,0
2017-03-12T02:10:58.044Z,0
2017-03-12T02:11:38.585Z,0
2017-03-12T02:12:19.116Z,0
2017-03-12T02:12:59.650Z,0
2017-03-12T02:13:40.179Z,0
2017-03-12T02:14:20.713Z,0
2017-03-12T02:15:01.245Z,0
2017-03-12T02:15:41.786Z,0
2017-03-12T02:16:22.316Z,0
2017-03-12T02:17:02.854Z,0
2017-03-12T02:17:43.387Z,0
2017-03-12T02:18:23.923Z,0
2017-03-12T02:19:04.446Z,0
2017-03-12T02:19:44.989Z,0
2017-03-12T02:20:25.520Z,0
2017-03-12T02:21:06.054Z,0
2017-03-12T02:21:46.584Z,0
2017-03-12T02:22:27.118Z,0
2017-03-12T02:23:07.645Z,0
2017-03-12T02:23:48.194Z,0
2017-03-12T02:24:28.703Z,0
2017-03-12T02:25:09.233Z,0
2017-03-12T02:25:49.767Z,0
2017-03-12T02:26:30.310Z,0
2017-03-12T02:27:10.841Z,0
2017-03-12T02:27:51.359Z,0
2017-03-12T02:28:31.888Z,0
2017-03-12T02:29:12.422Z,0
2017-03-12T02:29:52.947Z,0
2017-03-12T02:30:33.485Z,0
2017-03-12T02:31:14.016Z,0
2017-03-12T02:31:54.547Z,0
2017-03-12T02:32:35.082Z,0
2017-03-12T02:33:15.611Z,0
2017-03-12T02:33:56.143Z,0
2017-03-12T02:34:36.681Z,0
2017-03-12T02:35:17.211Z,0
2017-03-12T02:35:57.736Z,0
2017-03-12T02:36:38.265Z,0
2017-03-12T02:37:18.801Z,0
2017-03-12T02:37:59.329Z,0
2017-03-12T02:38:39.849Z,0
2017-03-12T02:39:20.390Z,0
2017-03-12T02:40:00.920Z,0
2017-03-12T02:40:41.452Z,0
2017-03-12T02:41:21.995Z,0
2017-03-12T02:42:02.515Z,0
2017-03-12T02:42:43.047Z,0
2017-03-12T02:43:23.582Z,0
2017-03-12T02:44:04.115Z,0
2017-03-12T02:44:44.673Z,0
2017-03-12T02:45:25.203Z,0
2017-03-12T02:46:05.723Z,0
2017-03-12T02:46:46.253Z,0
2017-03-12T02:47:26.794Z,0
2017-03-12T02:48:07.318Z,0
2017-03-12T02:48:47.856Z,0
2017-03-12T02:49:28.394Z,0
2017-03-12T02:50:08.915Z,0
2017-03-12T02:50:49.449Z,0
2017-03-12T02:51:29.985Z,0
2017-03-12T02:52:10.521Z,0
2017-03-12T02:52:51.058Z,0
2017-03-12T02:53:31.592Z,0
2017-03-12T02:54:12.107Z,0
2017-03-12T02:54:52.650Z,0
2017-03-12T02:55:33.184Z,0
2017-03-12T02:56:13.718Z,0
2017-03-12T02:56:54.257Z,0
2017-03-12T02:57:34.778Z,0
2017-03-12T02:58:15.300Z,0
2017-03-12T02:58:55.834Z,0
2017-03-12T02:59:36.365Z,0
2017-03-12T03:00:16.897Z,0
2017-03-12T03:00:57.430Z,0
2017-03-12T03:01:37.960Z,0
2017-03-12T03:02:18.492Z,0
2017-03-12T03:02:59.029Z,0
2017-03-12T03:03:39.568Z,0
2017-03-12T03:04:20.100Z,0
2017-03-12T03:05:00.634Z,0
2017-03-12T03:05:41.166Z,0
2017-03-12T03:06:21.706Z,0
2017-03-12T03:07:02.241Z,0
2017-03-12T03:07:42.771Z,0
2017-03-12T03:08:23.307Z,0
2017-03-12T03:09:03.828Z,0
2017-03-12T03:09:44.365Z,0
2017-03-12T03:10:24.915Z,0
2017-03-12T03:11:05.451Z,0
2017-03-12T03:11:45.984Z,0
2017-03-12T03:12:26.527Z,0
2017-03-12T03:13:07.057Z,0
2017-03-12T03:13:47.585Z,0
2017-03-12T03:14:28.113Z,0
2017-03-12T03:15:08.645Z,0
2017-03-12T03:15:49.177Z,0
2017-03-12T03:16:29.711Z,0
2017-03-12T03:17:10.245Z,0
2017-03-12T03:17:50.773Z,0
2017-03-12T03:18:31.307Z,0
2017-03-12T03:19:11.843Z,0
2017-03-12T03:19:52.377Z,0
2017-03-12T03:20:32.908Z,0
2017-03-12T03:21:13.440Z,0
2017-03-12T03:21:53.969Z,0
2017-03-12T03:22:34.497Z,0
2017-03-12T03:23:15.032Z,0
2017-03-12T03:23:55.569Z,0
2017-03-12T03:24:36.101Z,0
2017-03-12T03:25:16.636Z,0
2017-03-12T03:25:57.168Z,0
2017-03-12T03:26:37.701Z,0
2017-03-12T03:27:18.235Z,0
2017-03-12T03:27:58.770Z,0
2017-03-12T03:28:39.293Z,0
2017-03-12T03:29:19.821Z,0
2017-03-12T03:30:00.343Z,0
2017-03-12T03:30:40.881Z,0
2017-03-12T03:31:21.409Z,0
2017-03-12T03:32:01.937Z,0
2017-03-12T03:32:42.501Z,0
2017-03-12T03:33:23.034Z,0
2017-03-12T03:34:03.569Z,0
2017-03-12T03:34:44.106Z,0
2017-03-12T03:35:24.639Z,0
2017-03-12T03:36:05.163Z,0
2017-03-12T03:36:45.689Z,0
2017-03-12T03:37:26.227Z,0
2017-03-12T03:38:06.782Z,0
2017-03-12T03:38:47.302Z,0
2017-03-12T03:39:27.842Z,0
2017-03-12T03:40:08.361Z,0
2017-03-12T03:40:48.890Z,0
2017-03-12T03:41:29.432Z,0
2017-03-12T03:42:09.952Z,0
2017-03-12T03:42:50.489Z,0
2017-03-12T03:43:31.025Z,0
2017-03-12T03:44:11.551Z,0
2017-03-12T03:44:52.085Z,0
2017-03-12T03:45:32.618Z,0
2017-03-12T03:46:13.157Z,0
2017-03-12T03:46:53.697Z,0
2017-03-12T03:47:34.226Z,0
2017-03-12T03:48:14.744Z,0
2017-03-12T03:48:55.284Z,0
2017-03-12T03:49:35.818Z,0
2017-03-12T03:50:16.351Z,0
2017-03-12T03:50:56.879Z,0
2017-03-12T03:51:37.396Z,0
2017-03-12T03:52:17.927Z,0
2017-03-12T03:52:58.456Z,0
2017-03-12T03:53:38.989Z,0
2017-03-12T03:54:19.514Z,0
2017-03-12T03:55:00.044Z,0
2017-03-12T03:55:40.577Z,0
2017-03-12T03:56:21.104Z,0
2017-03-12T03:57:01.637Z,0
2017-03-12T03:57:42.167Z,0
2017-03-12T03:58:22.697Z,0
2017-03-12T03:59:03.227Z,0
2017-03-12T03:59:43.758Z,0
2017-03-12T04:00:24.291Z,0
2017-03-12T04:01:04.818Z,0
2017-03-12T04:01:45.348Z,0
2017-03-12T04:02:25.882Z,0
2017-03-12T04:03:06.407Z,0
2017-03-12T04:03:46.944Z,0
2017-03-12T04:04:27.456Z,0
2017-03-12T04:05:08.003Z,0
2017-03-12T04:05:48.542Z,0
2017-03-12T04:06:29.079Z,0
2017-03-12T04:07:09.609Z,0
2017-03-12T04:07:50.138Z,0
2017-03-12T04:08:30.669Z,0
2017-03-12T04:09:11.195Z,0
2017-03-12T04:09:51.729Z,0
2017-03-12T04:10:32.260Z,0
2017-03-12T04:11:12.785Z,0
2017-03-12T04:11:53.307Z,0
2017-03-12T04:12:33.838Z,0
2017-03-12T04:13:14.366Z,0
2017-03-12T04:13:54.893Z,0
2017-03-12T04:14:35.497Z,0
2017-03-12T04:15:16.032Z,0
2017-03-12T04:15:56.565Z,0
2017-03-12T04:16:37.101Z,0
2017-03-12T04:17:17.633Z,0
2017-03-12T04:17:58.165Z,0
2017-03-12T04:18:38.706Z,0
2017-03-12T04:19:19.238Z,0
2017-03-12T04:19:59.771Z,0
2017-03-12T04:20:40.300Z,0
2017-03-12T04:21:20.830Z,0
2017-03-12T04:22:01.364Z,0
2017-03-12T04:22:41.898Z,0
2017-03-12T04:23:22.433Z,0
2017-03-12T04:24:02.971Z,0
2017-03-12T04:24:43.494Z,0
2017-03-12T04:25:24.022Z,0
2017-03-12T04:26:04.556Z,0
2017-03-12T04:26:45.099Z,0
2017-03-12T04:27:25.633Z,0
2017-03-12T04:28:06.169Z,0
2017-03-12T04:28:46.696Z,0
2017-03-12T04:29:27.223Z,0
2017-03-12T04:30:07.762Z,0
2017-03-12T04:30:48.302Z,0
2017-03-12T04:31:28.836Z,0
2017-03-12T04:32:09.375Z,0
2017-03-12T04:32:49.908Z,0
2017-03-12T04:33:30.434Z,0
2017-03-12T04:34:10.967Z,0
2017-03-12T04:34:51.497Z,0
2017-03-12T04:35:32.029Z,0
2017-03-12T04:36:12.565Z,0
2017-03-12T04:36:53.128Z,0
2017-03-12T04:37:33.658Z,0
2017-03-12T04:38:14.183Z,0
2017-03-12T04:38:54.717Z,0
2017-03-12T04:39:35.252Z,0
2017-03-12T04:40:15.782Z,0
2017-03-12T04:40:56.318Z,0
2017-03-12T04:41:36.844Z,0
2017-03-12T04:42:17.375Z,0
2017-03-12T04:42:57.911Z,0
2017-03-12T04:43:38.438Z,0
2017-03-12T04:44:18.972Z,0
2017-03-12T04:44:59.496Z,0
2017-03-12T04:45:40.028Z,0
2017-03-12T04:46:20.562Z,0
2017-03-12T04:47:01.094Z,0
2017-03-12T04:47:41.634Z,0
2017-03-12T04:48:22.168Z,0
2017-03-12T04:49:02.701Z,0
2017-03-12T04:49:43.232Z,0
2017-03-12T04:50:23.774Z,0
2017-03-12T04:51:04.305Z,0
2017-03-12T04:51:44.839Z,0
2017-03-12T04:52:25.363Z,0
2017-03-12T04:53:05.885Z,0
2017-03-12T04:53:46.425Z,0
2017-03-12T04:54:26.959Z,0
2017-03-12T04:55:07.491Z,0
2017-03-12T04:55:48.015Z,0
2017-03-12T04:56:28.545Z,0
2017-03-12T04:57:09.077Z,0
2017-03-12T04:57:49.599Z,0
2017-03-12T04:58:30.132Z,0
2017-03-12T04:59:10.671Z,0
2017-03-12T04:59:51.198Z,0
2017-03-12T05:00:31.729Z,0
2017-03-12T05:01:12.262Z,0
2017-03-12T05:01:52.795Z,0
2017-03-12T05:02:33.318Z,0
2017-03-12T05:03:13.842Z,0
2017-03-12T05:03:54.383Z,0
2017-03-12T05:04:34.916Z,0
2017-03-12T05:05:15.448Z,0
2017-03-12T05:05:55.975Z,0
2017-03-12T05:06:36.504Z,0
2017-03-12T05:07:17.036Z,0
2017-03-12T05:07:57.555Z,0
2017-03-12T05:08:38.089Z,0
2017-03-12T05:09:18.615Z,0
2017-03-12T05:09:59.149Z,0
2017-03-12T05:10:39.686Z,0
2017-03-12T05:11:20.220Z,0
2017-03-12T05:12:00.750Z,0
2017-03-12T05:12:41.282Z,0
2017-03-12T05:13:21.810Z,0
2017-03-12T05:14:02.341Z,0
2017-03-12T05:14:42.876Z,0
2017-03-12T05:15:23.405Z,0
2017-03-12T05:16:03.936Z,0
2017-03-12T05:16:44.469Z,0
2017-03-12T05:17:25.001Z,0
2017-03-12T05:18:05.539Z,0
2017-03-12T05:18:46.114Z,0
2017-03-12T05:19:26.649Z,0
2017-03-12T05:20:07.184Z,0
2017-03-12T05:20:47.709Z,0
2017-03-12T05:21:28.247Z,0
2017-03-12T05:22:08.771Z,0
2017-03-12T05:22:49.301Z,0
2017-03-12T05:23:29.838Z,0
2017-03-12T05:24:10.364Z,0
2017-03-12T05:24:50.888Z,4
2017-03-12T05:25:31.418Z,4
2017-03-12T05:26:11.950Z,4
2017-03-12T05:26:52.487Z,0
2017-03-12T05:27:33.016Z,0
2017-03-12T05:28:13.550Z,4
2017-03-12T05:28:54.062Z,4
2017-03-12T05:29:34.597Z,4
2017-03-12T05:30:15.122Z,4
2017-03-12T05:30:55.661Z,4
2017-03-12T05:31:36.195Z,4
2017-03-12T05:32:16.723Z,8
2017-03-12T05:32:57.258Z,4
2017-03-12T05:33:37.802Z,8
2017-03-12T05:34:18.324Z,8
2017-03-12T05:34:58.880Z,12
2017-03-12T05:35:39.394Z,12
2017-03-12T05:36:19.924Z,12
2017-03-12T05:37:00.463Z,12
2017-03-12T05:37:41.002Z,12
2017-03-12T05:38:21.536Z,16
2017-03-12T05:39:02.080Z,16
2017-03-12T05:39:42.599Z,20
2017-03-12T05:40:23.137Z,20
2017-03-12T05:41:03.665Z,24
2017-03-12T05:41:44.206Z,24
2017-03-12T05:42:24.747Z,28
2017-03-12T05:43:05.278Z,32
2017-03-12T05:43:45.803Z,36
2017-03-12T05:44:26.365Z,36
2017-03-12T05:45:06.923Z,40
2017-03-12T05:45:47.462Z,44
2017-03-12T05:46:27.994Z,48
2017-03-12T05:47:08.524Z,52
2017-03-12T05:47:49.061Z,56
2017-03-12T05:48:29.596Z,60
2017-03-12T05:49:10.128Z,68
2017-03-12T05:49:50.665Z,68
2017-03-12T05:50:31.198Z,76
2017-03-12T05:51:11.723Z,80
2017-03-12T05:51:52.263Z,88
2017-03-12T05:52:32.787Z,92
2017-03-12T05:53:13.311Z,100
2017-03-12T05:53:53.843Z,100
2017-03-12T05:54:34.376Z,108
2017-03-12T05:55:14.915Z,108
2017-03-12T05:55:55.439Z,116
2017-03-12T05:56:35.974Z,120
2017-03-12T05:57:16.511Z,124
2017-03-12T05:57:57.071Z,132
2017-03-12T05:58:37.603Z,140
2017-03-12T05:59:18.125Z,144
2017-03-12T05:59:58.646Z,152
2017-03-12T06:00:39.183Z,160
2017-03-12T06:01:19.725Z,168
2017-03-12T06:02:00.237Z,180
2017-03-12T06:02:40.770Z,188
2017-03-12T06:03:21.305Z,200
2017-03-12T06:04:01.837Z,212
2017-03-12T06:04:42.369Z,224
2017-03-12T06:05:22.904Z,236
2017-03-12T06:06:03.436Z,252
2017-03-12T06:06:43.973Z,260
2017-03-12T06:07:24.508Z,276
2017-03-12T06:08:05.040Z,292
2017-03-12T06:08:45.573Z,304
2017-03-12T06:09:26.110Z,320
2017-03-12T06:10:06.642Z,336
2017-03-12T06:10:47.181Z,352
2017-03-12T06:11:27.719Z,372
2017-03-12T06:12:08.276Z,388
2017-03-12T06:12:48.796Z,404
2017-03-12T06:13:29.324Z,424
2017-03-12T06:14:09.860Z,440
2017-03-12T06:14:50.391Z,460
2017-03-12T06:15:31.477Z,484
2017-03-12T06:16:14.151Z,500
2017-03-12T06:16:57.033Z,524
2017-03-12T06:17:40.235Z,548
2017-03-12T06:18:24.013Z,568
2017-03-12T06:19:07.058Z,592
2017-03-12T06:19:50.517Z,616
2017-03-12T06:20:33.685Z,636
2017-03-12T06:21:17.617Z,664
2017-03-12T06:22:00.791Z,688
2017-03-12T06:22:43.533Z,712
2017-03-12T06:23:24.076Z,732
2017-03-12T06:24:04.609Z,756
2017-03-12T06:24:45.144Z,780
2017-03-12T06:25:25.676Z,804
2017-03-12T06:26:06.212Z,828
2017-03-12T06:26:46.746Z,852
2017-03-12T06:27:27.276Z,872
2017-03-12T06:28:07.895Z,900
2017-03-12T06:28:48.502Z,928
2017-03-12T06:29:29.055Z,948
2017-03-12T06:30:09.581Z,976
2017-03-12T06:30:50.190Z,1000
2017-03-12T06:31:30.626Z,1028
2017-03-12T06:32:11.166Z,1060
2017-03-12T06:32:51.698Z,1088
2017-03-12T06:33:32.373Z,1120
2017-03-12T06:34:12.904Z,1152
2017-03-12T06:34:53.444Z,1180
2017-03-12T06:35:33.972Z,1212
2017-03-12T06:36:14.518Z,1240
2017-03-12T06:36:55.043Z,1272
2017-03-12T06:37:35.576Z,1300
2017-03-12T06:38:16.320Z,1328
2017-03-12T06:38:56.864Z,1356
2017-03-12T06:39:37.396Z,1392
2017-03-12T06:40:17.932Z,1420
2017-03-12T06:40:58.473Z,1452
2017-03-12T06:41:39.001Z,1484
2017-03-12T06:42:19.535Z,1512
2017-03-12T06:43:00.066Z,1544
2017-03-12T06:43:40.595Z,1572
2017-03-12T06:44:21.124Z,1604
2017-03-12T06:45:01.655Z,1632
2017-03-12T06:45:42.185Z,1664
2017-03-12T06:46:22.718Z,1696
2017-03-12T06:47:03.259Z,1724
2017-03-12T06:47:43.780Z,1752
2017-03-12T06:48:24.314Z,1780
2017-03-12T06:49:04.854Z,1804
2017-03-12T06:49:45.381Z,1828
2017-03-12T06:50:25.899Z,1856
2017-03-12T06:51:06.436Z,1884
2017-03-12T06:51:47.839Z,1908
2017-03-12T06:52:29.474Z,1936
2017-03-12T06:53:10.528Z,1960
2017-03-12T06:53:51.065Z,1984
2017-03-12T06:54:31.600Z,2004
2017-03-12T06:55:12.134Z,2024
2017-03-12T06:55:52.696Z,2052
2017-03-12T06:56:33.232Z,2068
2017-03-12T06:57:13.767Z,2088
2017-03-12T06:57:54.314Z,2108
2017-03-12T06:58:34.850Z,2128
2017-03-12T06:59:15.384Z,2152
2017-03-12T06:59:55.923Z,2172
2017-03-12T07:00:36.444Z,2192
2017-03-12T07:01:16.971Z,2216
2017-03-12T07:01:57.513Z,2232
2017-03-12T07:02:38.039Z,2256
2017-03-12T07:03:18.582Z,2272
2017-03-12T07:03:59.127Z,2296
2017-03-12T07:04:39.657Z,2316
2017-03-12T07:05:20.502Z,2340
2017-03-12T07:06:01.070Z,2360
2017-03-12T07:06:41.604Z,2388
2017-03-12T07:07:22.139Z,2412
2017-03-12T07:08:02.670Z,2440
2017-03-12T07:08:43.202Z,2464
2017-03-12T07:09:23.735Z,2496
2017-03-12T07:10:04.268Z,2520
2017-03-12T07:10:44.802Z,2552
2017-03-12T07:11:25.334Z,2580
2017-03-12T07:12:05.871Z,2608
2017-03-12T07:12:46.410Z,2640
2017-03-12T07:13:26.944Z,2668
2017-03-12T07:14:07.488Z,2696
2017-03-12T07:14:48.008Z,2724
2017-03-12T07:15:28.557Z,2756
2017-03-12T07:16:09.103Z,2784
2017-03-12T07:16:49.639Z,2816
2017-03-12T07:17:30.186Z,2844
2017-03-12T07:18:10.697Z,2868
2017-03-12T07:18:51.234Z,2904
2017-03-12T07:19:31.806Z,2944
2017-03-12T07:20:12.344Z,2980
2017-03-12T07:20:52.882Z,3020
2017-03-12T07:21:33.422Z,3056
2017-03-12T07:22:13.973Z,3092
2017-03-12T07:22:54.511Z,3124
2017-03-12T07:23:35.058Z,3156
2017-03-12T07:24:15.591Z,3192
2017-03-12T07:24:56.126Z,3224
2017-03-12T07:25:36.656Z,3244
2017-03-12T07:26:17.195Z,3256
2017-03-12T07:26:57.725Z,3288
2017-03-12T07:27:38.261Z,3320
2017-03-12T07:28:18.789Z,3356
2017-03-12T07:28:59.323Z,3388
2017-03-12T07:29:40.389Z,3424
2017-03-12T07:30:22.534Z,3452
2017-03-12T07:31:05.108Z,3488
2017-03-12T07:31:48.527Z,3512
2017-03-12T07:34:19.378Z,3604
2017-03-12T07:34:59.916Z,3636
2017-03-12T07:35:40.454Z,3656
2017-03-12T07:36:20.980Z,3680
2017-03-12T07:37:01.513Z,3700
2017-03-12T07:37:42.051Z,3724
2017-03-12T07:38:22.595Z,3748
2017-03-12T07:39:03.127Z,3776
2017-03-12T07:39:43.659Z,3796
2017-03-12T07:40:24.191Z,3820
2017-03-12T07:41:04.716Z,3840
2017-03-12T07:41:45.247Z,3864
2017-03-12T07:42:25.780Z,3888
2017-03-12T07:43:06.317Z,3908
2017-03-12T07:43:46.837Z,3924
2017-03-12T07:44:27.365Z,3952
2017-03-12T07:45:07.897Z,3964
2017-03-12T07:45:48.430Z,3984
2017-03-12T07:46:28.963Z,3996
2017-03-12T07:47:09.498Z,4016
2017-03-12T07:47:50.027Z,4040
2017-03-12T07:48:30.565Z,4056
2017-03-12T07:49:11.097Z,4068
2017-03-12T07:49:51.632Z,4080
2017-03-12T07:50:32.162Z,4092
2017-03-12T07:51:12.700Z,4112
2017-03-12T07:51:53.230Z,4120
2017-03-12T07:52:33.769Z,4132
2017-03-12T07:53:14.318Z,4144
2017-03-12T07:53:54.848Z,4156
2017-03-12T07:54:35.383Z,4160
2017-03-12T07:55:15.916Z,4164
2017-03-12T07:55:56.437Z,4180
2017-03-12T07:56:36.971Z,4192
2017-03-12T07:57:17.506Z,4200
2017-03-12T07:57:58.039Z,4204
2017-03-12T07:58:38.582Z,4212
2017-03-12T07:59:19.116Z,4204
2017-03-12T07:59:59.648Z,4224
2017-03-12T08:00:40.177Z,4224
2017-03-12T08:01:20.714Z,4236
2017-03-12T08:02:01.243Z,4248
2017-03-12T08:02:42.091Z,4260
2017-03-12T08:05:21.439Z,4288
2017-03-12T08:06:03.922Z,4292
2017-03-12T08:06:45.578Z,4300
2017-03-12T08:07:29.403Z,4308
2017-03-12T08:08:10.685Z,4320
2017-03-12T08:08:51.220Z,4320
2017-03-12T08:09:31.766Z,4328
2017-03-12T08:10:12.305Z,4340
2017-03-12T08:10:52.853Z,4348
2017-03-12T08:11:33.382Z,4360
2017-03-12T08:12:15.459Z,4368
2017-03-12T08:12:57.773Z,4380
2017-03-12T08:13:41.603Z,4396
2017-03-12T08:14:24.461Z,4412
2017-03-12T08:15:08.151Z,4428
2017-03-12T08:15:51.424Z,4444
2017-03-12T08:16:33.956Z,4460
2017-03-12T08:17:16.349Z,4476
2017-03-12T08:17:59.098Z,4484
2017-03-12T08:18:42.150Z,4504
2017-03-12T08:19:25.386Z,4524
2017-03-12T08:20:07.416Z,4540
2017-03-12T08:20:48.401Z,4572
2017-03-12T08:21:28.921Z,4592
2017-03-12T08:22:09.454Z,4612
2017-03-12T08:22:50.156Z,4644
2017-03-12T08:23:31.654Z,4672
2017-03-12T08:24:12.281Z,4708
2017-03-12T08:24:52.816Z,4752
2017-03-12T08:25:33.362Z,4804
2017-03-12T08:26:13.916Z,4848
2017-03-12T08:26:54.453Z,4856
2017-03-12T08:27:34.977Z,4856
2017-03-12T08:28:15.529Z,4860
2017-03-12T08:28:56.078Z,4888
2017-03-12T08:29:36.610Z,4904
2017-03-12T08:30:17.155Z,4948
2017-03-12T08:30:57.688Z,5000
2017-03-12T08:31:38.239Z,5032
2017-03-12T08:32:18.788Z,5064
2017-03-12T08:32:59.307Z,5112
2017-03-12T08:33:39.842Z,5188
2017-03-12T08:34:20.373Z,5264
2017-03-12T08:35:00.905Z,5284
2017-03-12T08:35:41.429Z,5320
2017-03-12T08:36:21.963Z,5308
2017-03-12T08:37:02.500Z,5308
2017-03-12T08:37:43.020Z,5320
2017-03-12T08:38:23.556Z,5336
2017-03-12T08:39:04.094Z,5364
2017-03-12T08:39:44.615Z,5420
2017-03-12T08:40:25.160Z,6956
2017-03-12T08:41:05.694Z,10556
2017-03-12T08:41:46.230Z,11420
2017-03-12T08:42:26.761Z,8532
2017-03-12T08:43:07.315Z,6104
2017-03-12T08:43:47.855Z,7668
2017-03-12T08:44:28.392Z,8180
2017-03-12T08:45:08.918Z,6760
2017-03-12T08:45:49.450Z,5764
2017-03-12T08:46:29.988Z,5808
2017-03-12T08:47:10.523Z,5872
2017-03-12T08:47:51.063Z,5832
2017-03-12T08:48:31.606Z,5980
2017-03-12T08:49:12.143Z,6592
2017-03-12T08:49:52.676Z,7644
2017-03-12T08:50:33.230Z,9372
2017-03-12T08:51:13.738Z,11452
2017-03-12T08:51:54.274Z,12920
2017-03-12T08:52:34.808Z,11720
2017-03-12T08:53:15.373Z,12300
2017-03-12T08:53:55.911Z,12848
2017-03-12T08:54:36.448Z,12232
2017-03-12T08:55:16.981Z,10008
2017-03-12T08:55:57.508Z,8204
2017-03-12T08:56:38.044Z,7496
2017-03-12T08:57:18.583Z,7672
2017-03-12T08:57:59.128Z,7828
2017-03-12T08:58:39.672Z,8036
2017-03-12T08:59:20.205Z,7888
2017-03-12T09:00:00.737Z,8072
2017-03-12T09:00:41.267Z,8244
2017-03-12T09:01:21.803Z,8440
2017-03-12T09:02:02.332Z,8776
2017-03-12T09:02:42.869Z,9116
2017-03-12T09:03:23.402Z,9536
2017-03-12T09:04:03.935Z,9584
2017-03-12T09:04:44.466Z,9636
2017-03-12T09:05:25.005Z,9924
2017-03-12T09:06:05.543Z,10552
2017-03-12T09:06:46.079Z,11088
2017-03-12T09:07:26.622Z,10876
2017-03-12T09:08:07.162Z,10544
2017-03-12T09:08:47.703Z,12784
2017-03-12T09:09:28.240Z,22144
2017-03-12T09:10:08.771Z,31584
2017-03-12T09:10:49.319Z,36608
2017-03-12T09:11:29.848Z,36896
2017-03-12T09:12:10.384Z,37184
2017-03-12T09:12:50.926Z,35520
2017-03-12T09:13:31.464Z,35296
2017-03-12T09:14:12.000Z,34784
2017-03-12T09:14:52.543Z,34752
2017-03-12T09:15:33.082Z,34400
2017-03-12T09:16:13.622Z,34400
2017-03-12T09:16:54.165Z,34496
2017-03-12T09:17:34.704Z,36032
2017-03-12T09:18:15.241Z,38400
2017-03-12T09:18:55.784Z,37120
2017-03-12T09:19:36.322Z,37248
2017-03-12T09:20:16.851Z,37472
2017-03-12T09:20:57.398Z,37504
2017-03-12T09:21:37.940Z,40256
2017-03-12T09:22:18.500Z,39392
2017-03-12T09:22:59.010Z,35200
2017-03-12T09:23:39.547Z,33408
2017-03-12T09:24:20.085Z,30880
2017-03-12T09:25:00.629Z,32992
2017-03-12T09:25:41.176Z,29856
2017-03-12T09:26:21.715Z,26336
2017-03-12T09:27:02.253Z,32384
2017-03-12T09:27:42.785Z,27520
2017-03-12T09:28:23.318Z,35136
2017-03-12T09:29:03.855Z,35136
2017-03-12T09:29:44.396Z,26240
2017-03-12T09:30:24.949Z,24640
2017-03-12T09:31:05.491Z,36608
2017-03-12T09:31:46.033Z,28256
2017-03-12T09:32:26.569Z,22592
2017-03-12T09:33:07.109Z,29088
2017-03-12T09:33:47.644Z,29696
2017-03-12T09:34:28.172Z,25312
2017-03-12T09:35:08.703Z,23168
2017-03-12T09:35:49.250Z,26176
2017-03-12T09:36:29.781Z,31840
2017-03-12T09:37:10.322Z,45024
2017-03-12T09:37:50.862Z,39072
2017-03-12T09:38:31.396Z,36064
2017-03-12T09:39:11.942Z,35488
2017-03-12T09:39:52.473Z,36800
2017-03-12T09:40:33.014Z,38528
2017-03-12T09:41:13.551Z,38912
2017-03-12T09:41:54.091Z,38272
2017-03-12T09:42:34.625Z,37984
2017-03-12T09:43:15.163Z,43200
2017-03-12T09:43:55.712Z,35904
2017-03-12T09:44:36.250Z,40480
2017-03-12T09:45:16.790Z,33280
2017-03-12T09:45:57.337Z,31552
2017-03-12T09:46:37.877Z,29344
2017-03-12T09:47:18.419Z,44416
2017-03-12T09:47:58.959Z,44640
2017-03-12T09:48:39.501Z,44608
2017-03-12T09:49:20.043Z,43776
2017-03-12T09:50:00.579Z,43488
2017-03-12T09:50:41.127Z,42784
2017-03-12T09:51:21.670Z,42688
2017-03-12T09:52:02.206Z,43552
2017-03-12T09:52:42.737Z,44192
2017-03-12T09:53:23.276Z,43552
2017-03-12T09:54:03.813Z,42624
2017-03-12T09:54:44.354Z,42752
2017-03-12T09:55:24.892Z,43968
2017-03-12T09:56:05.431Z,45472
2017-03-12T09:56:45.992Z,45536
2017-03-12T09:57:26.531Z,46560
2017-03-12T09:58:07.071Z,47392
2017-03-12T09:58:47.613Z,48224
2017-03-12T09:59:28.152Z,47136
2017-03-12T10:00:08.690Z,47296
2017-03-12T10:00:49.225Z,47808
2017-03-12T10:01:30.216Z,48576
2017-03-12T10:02:10.747Z,47328
2017-03-12T10:02:51.291Z,46752
2017-03-12T10:03:31.871Z,47040
2017-03-12T10:04:12.369Z,47424
2017-03-12T10:04:52.916Z,47968
2017-03-12T10:05:33.458Z,48032
2017-03-12T10:06:14.001Z,48128
2017-03-12T10:06:54.544Z,47328
2017-03-12T10:07:35.087Z,47680
2017-03-12T10:08:15.627Z,47840
2017-03-12T10:08:56.158Z,47264
2017-03-12T10:09:36.723Z,48544
2017-03-12T10:10:17.263Z,48928
2017-03-12T10:10:57.791Z,47488
2017-03-12T10:11:38.313Z,48160
2017-03-12T10:12:18.880Z,50816
2017-03-12T10:12:59.441Z,51520